createdAt,value
2022-10-22T00:02:55.782Z,100161.91
2022-10-22T00:05:58.820Z,100169.34
2022-10-22T00:09:01.368Z,100167.56
2022-10-22T00:12:05.000Z,100165.78
2022-10-22T00:15:08.070Z,100154.84
2022-10-22T00:18:11.415Z,100154.59
2022-10-22T00:21:14.103Z,100170.28
2022-10-22T00:24:16.899Z,100174.44
2022-10-22T00:27:19.634Z,100158.34
2022-10-22T00:30:23.053Z,100160.94
2022-10-22T00:33:29.608Z,100164.69
2022-10-22T00:36:32.437Z,100163.81
2022-10-22T00:39:35.270Z,100163.09
2022-10-22T00:42:38.348Z,100156.88
2022-10-22T00:45:41.456Z,100144.44
2022-10-22T00:48:44.384Z,100154.44
2022-10-22T00:51:46.911Z,100149.37
2022-10-22T00:54:50.975Z,100149.19
2022-10-22T00:57:55.846Z,100136.13
2022-10-22T01:00:59.108Z,100129.91
2022-10-22T01:04:01.765Z,100137.38
2022-10-22T01:07:04.955Z,100151.03
2022-10-22T01:10:26.494Z,100145.63
2022-10-22T01:13:44.206Z,100145.75
2022-10-22T01:16:52.498Z,100145.09
2022-10-22T01:20:14.131Z,100149.19
2022-10-22T01:23:31.799Z,100151.09
2022-10-22T01:27:12.012Z,100156.69
2022-10-22T01:30:15.631Z,100155.13
2022-10-22T01:33:22.891Z,100150.62
2022-10-22T01:36:26.027Z,100152.47
2022-10-22T01:39:31.011Z,100150.31
2022-10-22T01:42:33.606Z,100145.69
2022-10-22T01:45:42.353Z,100153.47
2022-10-22T01:49:12.932Z,100154.97
2022-10-22T01:52:35.864Z,100148.84
2022-10-22T01:55:53.335Z,100142.59
2022-10-22T01:59:04.114Z,100143.56
2022-10-22T02:02:09.854Z,100138.56
2022-10-22T02:05:23.229Z,100135.66
2022-10-22T02:08:31.060Z,100134.81
2022-10-22T02:11:34.452Z,100132.56
2022-10-22T02:14:41.259Z,100136.38
2022-10-22T02:17:46.674Z,100128.06
2022-10-22T02:20:49.905Z,100126.91
2022-10-22T02:23:52.666Z,100124.09
2022-10-22T02:27:07.371Z,100128.22
2022-10-22T02:30:14.191Z,100121.97
2022-10-22T02:33:27.151Z,100126.56
2022-10-22T02:36:30.637Z,100127.84
2022-10-22T02:39:34.102Z,100135.37
2022-10-22T02:42:39.514Z,100129.75
2022-10-22T02:45:42.180Z,100132.88
2022-10-22T02:48:45.024Z,100130.81
2022-10-22T02:51:47.617Z,100123.66
2022-10-22T02:54:50.509Z,100120.22
2022-10-22T02:57:53.038Z,100141.91
2022-10-22T03:00:55.835Z,100151.06
2022-10-22T03:03:58.367Z,100149.28
2022-10-22T03:07:01.135Z,100151.31
2022-10-22T03:10:04.194Z,100150.19
2022-10-22T03:13:07.093Z,100149.50
2022-10-22T03:16:09.610Z,100151.72
2022-10-22T03:19:12.597Z,100140.97
2022-10-22T03:22:20.387Z,100151.78
2022-10-22T03:25:26.980Z,100136.78
2022-10-22T03:28:31.649Z,100130.75
2022-10-22T03:31:35.495Z,100127.03
2022-10-22T03:34:38.008Z,100130.31
2022-10-22T03:37:41.026Z,100126.44
2022-10-22T03:40:45.970Z,100123.16
2022-10-22T03:43:52.753Z,100114.22
2022-10-22T03:46:58.660Z,100100.84
2022-10-22T03:50:06.195Z,100095.63
2022-10-22T03:53:10.621Z,100099.19
2022-10-22T03:56:13.825Z,100084.63
2022-10-22T03:59:16.510Z,100095.63
2022-10-22T04:02:19.468Z,100101.31
2022-10-22T04:05:22.244Z,100093.59
2022-10-22T04:08:24.778Z,100096.03
2022-10-22T04:11:27.787Z,100105.19
2022-10-22T04:14:30.346Z,100120.56
2022-10-22T04:17:34.927Z,100126.31
2022-10-22T04:20:37.518Z,100116.88
2022-10-22T04:23:45.463Z,100116.22
2022-10-22T04:26:47.970Z,100099.59
2022-10-22T04:29:52.345Z,100109.31
2022-10-22T04:32:54.788Z,100108.88
2022-10-22T04:35:57.646Z,100110.97
2022-10-22T04:39:01.427Z,100109.81
2022-10-22T04:42:04.463Z,100109.72
2022-10-22T04:45:07.924Z,100116.13
2022-10-22T04:48:10.975Z,100108.88
2022-10-22T04:51:17.638Z,100100.00
2022-10-22T04:54:20.345Z,100109.31
2022-10-22T04:57:22.851Z,100104.66
2022-10-22T05:00:25.532Z,100102.91
2022-10-22T05:03:28.042Z,100103.41
2022-10-22T05:06:33.211Z,100103.41
2022-10-22T05:09:35.775Z,100112.03
2022-10-22T05:12:38.568Z,100106.69
2022-10-22T05:15:41.311Z,100108.22
2022-10-22T05:18:45.044Z,100116.25
2022-10-22T05:21:47.563Z,100110.78
2022-10-22T05:24:50.338Z,100111.63
2022-10-22T05:27:55.212Z,100104.66
2022-10-22T05:31:01.242Z,100108.66
2022-10-22T05:34:03.751Z,100116.88
2022-10-22T05:37:07.909Z,100121.47
2022-10-22T05:40:19.553Z,100117.38
2022-10-22T05:43:30.372Z,100110.28
2022-10-22T05:46:35.344Z,100119.16
2022-10-22T05:49:38.190Z,100116.44
2022-10-22T05:52:40.805Z,100113.41
2022-10-22T05:55:44.699Z,100115.72
2022-10-22T05:58:47.804Z,100119.53
2022-10-22T06:01:50.989Z,100126.41
2022-10-22T06:04:53.807Z,100139.59
2022-10-22T06:07:57.828Z,100128.72
2022-10-22T06:11:00.932Z,100139.03
2022-10-22T06:14:04.310Z,100138.22
2022-10-22T06:17:07.101Z,100152.03
2022-10-22T06:20:10.784Z,100150.97
2022-10-22T06:23:15.682Z,100156.44
2022-10-22T06:26:18.476Z,100165.25
2022-10-22T06:29:21.769Z,100155.19
2022-10-22T06:32:24.382Z,100151.84
2022-10-22T06:35:27.103Z,100155.19
2022-10-22T06:38:29.557Z,100150.03
2022-10-22T06:41:32.569Z,100159.31
2022-10-22T06:44:35.410Z,100169.16
2022-10-22T06:47:38.659Z,100168.72
2022-10-22T06:50:42.032Z,100166.97
2022-10-22T06:53:45.518Z,100175.72
2022-10-22T06:56:48.289Z,100189.50
2022-10-22T06:59:51.328Z,100177.38
2022-10-22T07:02:57.681Z,100175.50
2022-10-22T07:06:04.254Z,100179.72
2022-10-22T07:09:06.975Z,100174.09
2022-10-22T07:12:09.899Z,100166.44
2022-10-22T07:15:12.538Z,100166.53
2022-10-22T07:18:15.342Z,100177.31
2022-10-22T07:21:20.442Z,100159.94
2022-10-22T07:24:23.261Z,100164.44
2022-10-22T07:27:25.753Z,100161.63
2022-10-22T07:30:28.557Z,100168.25
2022-10-22T07:33:31.333Z,100157.88
2022-10-22T07:36:34.168Z,100150.03
2022-10-22T07:39:37.784Z,100155.87
2022-10-22T07:42:41.210Z,100151.34
2022-10-22T07:45:45.028Z,100154.94
2022-10-22T07:48:48.318Z,100147.16
2022-10-22T07:51:50.893Z,100153.38
2022-10-22T07:54:53.949Z,100152.69
2022-10-22T07:57:56.558Z,100157.34
2022-10-22T08:01:01.107Z,100167.06
2022-10-22T08:04:04.154Z,100168.84
2022-10-22T08:07:06.807Z,100173.44
2022-10-22T08:10:12.098Z,100161.84
2022-10-22T08:13:15.382Z,100166.03
2022-10-22T08:16:18.445Z,100164.28
2022-10-22T08:19:21.601Z,100169.19
2022-10-22T08:22:24.563Z,100174.22
2022-10-22T08:25:27.855Z,100166.25
2022-10-22T08:28:32.933Z,100169.88
2022-10-22T08:31:35.591Z,100159.13
2022-10-22T08:34:38.722Z,100155.13
2022-10-22T08:37:41.648Z,100154.69
2022-10-22T08:43:54.623Z,100157.50
2022-10-22T08:47:22.688Z,100164.53
2022-10-22T08:50:54.596Z,100162.16
2022-10-22T08:54:22.921Z,100162.13
2022-10-22T08:57:52.304Z,100162.41
2022-10-22T09:01:13.861Z,100168.72
2022-10-22T09:04:28.804Z,100165.13
2022-10-22T09:07:31.732Z,100169.63
2022-10-22T09:10:38.297Z,100165.16
2022-10-22T09:13:44.734Z,100156.00
2022-10-22T09:17:12.638Z,100155.87
2022-10-22T09:20:28.794Z,100166.31
2022-10-22T09:23:58.313Z,100165.34
2022-10-22T09:27:02.839Z,100165.81
2022-10-22T09:30:05.952Z,100155.50
2022-10-22T09:33:24.846Z,100162.63
2022-10-22T09:36:31.393Z,100162.63
2022-10-22T09:39:38.956Z,100165.09
2022-10-22T09:42:41.606Z,100165.75
2022-10-22T09:45:46.043Z,100173.59
2022-10-22T09:48:53.080Z,100185.06
2022-10-22T09:52:01.065Z,100185.06
2022-10-22T09:55:14.147Z,100190.38
2022-10-22T09:58:18.775Z,100171.66
2022-10-22T10:01:29.921Z,100163.88
2022-10-22T10:04:42.046Z,100168.31
2022-10-22T10:07:44.782Z,100167.16
2022-10-22T10:10:50.010Z,100170.09
2022-10-22T10:14:07.412Z,100159.72
2022-10-22T10:17:28.281Z,100163.00
2022-10-22T10:20:49.770Z,100170.91
2022-10-22T10:24:06.073Z,100154.16
2022-10-22T10:27:20.584Z,100149.66
2022-10-22T10:30:24.499Z,100144.56
2022-10-22T10:33:57.970Z,100157.06
2022-10-22T10:37:09.689Z,100152.91
2022-10-22T10:40:19.804Z,100158.47
2022-10-22T10:43:50.994Z,100149.75
2022-10-22T10:47:06.075Z,100138.56
2022-10-22T10:50:50.328Z,100138.16
2022-10-22T10:54:20.623Z,100145.91
2022-10-22T10:57:51.138Z,100162.94
2022-10-22T11:00:58.183Z,100162.81
2022-10-22T11:04:22.762Z,100167.66
2022-10-22T11:07:36.906Z,100166.31
2022-10-22T11:10:52.745Z,100166.03
2022-10-22T11:14:05.260Z,100163.09
2022-10-22T11:17:16.516Z,100165.09
2022-10-22T11:20:28.450Z,100162.94
2022-10-22T11:23:46.469Z,100161.00
2022-10-22T11:27:05.304Z,100154.16
2022-10-22T11:30:23.071Z,100145.25
2022-10-22T11:33:29.314Z,100141.16
2022-10-22T11:36:33.746Z,100142.37
2022-10-22T11:39:45.753Z,100137.38
2022-10-22T11:42:53.636Z,100123.25
2022-10-22T11:46:27.298Z,100124.28
2022-10-22T11:50:16.152Z,100109.72
2022-10-22T11:53:31.552Z,100123.66
2022-10-22T11:56:38.935Z,100110.56
2022-10-22T11:59:52.115Z,100109.13
2022-10-22T12:03:33.305Z,100109.78
2022-10-22T12:07:00.324Z,100095.09
2022-10-22T12:10:18.477Z,100097.38
2022-10-22T12:13:25.027Z,100106.31
2022-10-22T12:16:54.584Z,100109.19
2022-10-22T12:20:03.219Z,100108.28
2022-10-22T12:23:09.221Z,100102.09
2022-10-22T12:29:38.331Z,100097.19
2022-10-22T12:32:41.519Z,100094.87
2022-10-22T12:35:46.519Z,100090.09
2022-10-22T12:38:49.933Z,100094.84
2022-10-22T12:41:54.370Z,100088.88
2022-10-22T12:44:57.259Z,100084.37
2022-10-22T12:48:02.324Z,100080.63
2022-10-22T12:51:09.605Z,100087.31
2022-10-22T12:54:25.267Z,100089.38
2022-10-22T12:57:28.171Z,100095.50
2022-10-22T13:00:34.613Z,100106.53
2022-10-22T13:03:47.180Z,100097.91
2022-10-22T13:06:54.529Z,100094.63
2022-10-22T13:09:59.716Z,100088.03
2022-10-22T13:13:04.108Z,100100.12
2022-10-22T13:16:19.266Z,100098.00
2022-10-22T13:19:54.681Z,100096.28
2022-10-22T13:23:02.874Z,100107.72
2022-10-22T13:26:17.794Z,100095.25
2022-10-22T13:29:23.477Z,100094.59
2022-10-22T13:32:32.154Z,100098.91
2022-10-22T13:35:38.964Z,100102.66
2022-10-22T13:38:42.522Z,100091.31
2022-10-22T13:41:50.745Z,100090.97
2022-10-22T13:44:53.335Z,100094.19
2022-10-22T13:47:57.327Z,100094.19
2022-10-22T13:51:00.098Z,100097.53
2022-10-22T13:54:09.383Z,100098.63
2022-10-22T13:57:11.947Z,100097.72
2022-10-22T14:00:20.732Z,100100.22
2022-10-22T14:03:33.370Z,100105.34
2022-10-22T14:09:44.451Z,100109.44
2022-10-22T14:12:52.344Z,100097.44
2022-10-22T14:15:56.985Z,100106.56
2022-10-22T14:19:01.152Z,100098.94
2022-10-22T14:22:05.174Z,100104.97
2022-10-22T14:25:12.590Z,100111.25
2022-10-22T14:28:15.498Z,100106.16
2022-10-22T14:31:17.984Z,100112.31
2022-10-22T14:34:20.802Z,100104.25
2022-10-22T14:37:24.929Z,100113.69
2022-10-22T14:40:27.889Z,100104.41
2022-10-22T14:43:31.325Z,100095.28
2022-10-22T14:46:34.326Z,100099.47
2022-10-22T14:49:36.860Z,100097.09
2022-10-22T14:52:41.053Z,100094.34
2022-10-22T14:55:45.052Z,100097.87
2022-10-22T14:58:48.113Z,100103.47
2022-10-22T15:01:50.716Z,100115.41
2022-10-22T15:04:53.799Z,100115.31
2022-10-22T15:07:59.083Z,100117.72
2022-10-22T15:11:10.439Z,100111.56
2022-10-22T15:14:13.110Z,100117.41
2022-10-22T15:17:17.652Z,100113.97
2022-10-22T15:20:20.500Z,100118.00
2022-10-22T15:23:23.589Z,100110.12
2022-10-22T15:26:26.179Z,100122.94
2022-10-22T15:29:30.318Z,100113.03
2022-10-22T15:32:34.091Z,100114.50
2022-10-22T15:35:38.833Z,100120.34
2022-10-22T15:38:41.837Z,100127.78
2022-10-22T15:41:44.661Z,100128.53
2022-10-22T15:44:47.300Z,100124.63
2022-10-22T15:47:51.269Z,100131.63
2022-10-22T15:50:53.885Z,100134.59
2022-10-22T15:53:59.089Z,100129.13
2022-10-22T15:57:03.531Z,100136.00
2022-10-22T16:00:07.137Z,100141.31
2022-10-22T16:03:14.792Z,100144.22
2022-10-22T16:06:17.554Z,100155.03
2022-10-22T16:09:23.265Z,100158.53
2022-10-22T16:12:26.352Z,100165.53
2022-10-22T16:15:28.944Z,100167.62
2022-10-22T16:18:31.899Z,100177.91
2022-10-22T16:21:34.395Z,100181.44
2022-10-22T16:24:43.260Z,100180.41
2022-10-22T16:27:50.086Z,100190.81
2022-10-22T16:30:53.057Z,100197.97
2022-10-22T16:33:55.820Z,100211.88
2022-10-22T16:36:58.557Z,100219.13
2022-10-22T16:40:07.389Z,100234.00
2022-10-22T16:43:11.529Z,100238.16
2022-10-22T16:46:19.215Z,100245.09
2022-10-22T16:49:22.155Z,100254.47
2022-10-22T16:52:24.657Z,100259.66
2022-10-22T16:55:27.463Z,100267.72
2022-10-22T16:58:30.864Z,100264.50
2022-10-22T17:01:37.890Z,100268.97
2022-10-22T17:04:43.192Z,100269.84
2022-10-22T17:07:46.254Z,100281.03
2022-10-22T17:10:48.726Z,100275.00
2022-10-22T17:13:54.030Z,100272.72
2022-10-22T17:16:57.790Z,100272.50
2022-10-22T17:20:00.916Z,100271.88
2022-10-22T17:23:03.651Z,100275.22
2022-10-22T17:26:09.621Z,100275.72
2022-10-22T17:29:13.387Z,100273.81
2022-10-22T17:32:16.484Z,100266.97
2022-10-22T17:35:20.019Z,100265.34
2022-10-22T17:38:23.427Z,100271.97
2022-10-22T17:41:29.908Z,100280.41
2022-10-22T17:44:32.904Z,100280.53
2022-10-22T17:47:36.350Z,100283.56
2022-10-22T17:50:46.908Z,100291.84
2022-10-22T17:53:52.889Z,100285.34
2022-10-22T17:56:55.770Z,100293.44
2022-10-22T17:59:58.828Z,100300.44
2022-10-22T18:03:01.669Z,100299.72
2022-10-22T18:06:08.810Z,100304.16
2022-10-22T18:09:17.361Z,100293.22
2022-10-22T18:12:21.824Z,100293.81
2022-10-22T18:15:26.093Z,100312.59
2022-10-22T18:18:30.207Z,100318.41
2022-10-22T18:21:34.408Z,100329.59
2022-10-22T18:24:38.953Z,100326.69
2022-10-22T18:27:42.709Z,100327.28
2022-10-22T18:30:47.960Z,100332.34
2022-10-22T18:33:51.173Z,100309.38
2022-10-22T18:36:54.074Z,100307.59
2022-10-22T18:39:56.830Z,100329.34
2022-10-22T18:42:59.917Z,100329.69
2022-10-22T18:46:05.559Z,100334.50
2022-10-22T18:49:11.728Z,100353.16
2022-10-22T18:52:14.558Z,100355.06
2022-10-22T18:55:18.518Z,100354.44
2022-10-22T18:58:21.232Z,100337.88
2022-10-22T19:01:29.259Z,100331.50
2022-10-22T19:04:37.100Z,100349.88
2022-10-22T19:07:41.355Z,100368.25
2022-10-22T19:10:46.184Z,100339.66
2022-10-22T19:13:49.325Z,100345.91
2022-10-22T19:16:52.079Z,100352.66
2022-10-22T19:19:55.433Z,100346.78
2022-10-22T19:23:00.777Z,100347.97
2022-10-22T19:26:12.738Z,100345.09
2022-10-22T19:29:17.661Z,100351.56
2022-10-22T19:32:21.417Z,100360.94
2022-10-22T19:35:24.312Z,100360.09
2022-10-22T19:38:29.712Z,100369.22
2022-10-22T19:41:33.530Z,100377.31
2022-10-22T19:44:36.483Z,100372.03
2022-10-22T19:47:39.742Z,100378.84
2022-10-22T19:50:42.769Z,100385.22
2022-10-22T19:53:45.917Z,100382.78
2022-10-22T19:56:49.941Z,100389.03
2022-10-22T19:59:53.147Z,100393.59
2022-10-22T20:02:56.171Z,100396.84
2022-10-22T20:05:59.158Z,100400.78
2022-10-22T20:09:01.780Z,100405.34
2022-10-22T20:12:04.959Z,100413.41
2022-10-22T20:15:08.143Z,100418.62
2022-10-22T20:18:11.668Z,100424.22
2022-10-22T20:21:16.026Z,100428.59
2022-10-22T20:24:19.345Z,100430.41
2022-10-22T20:27:23.396Z,100428.72
2022-10-22T20:30:27.022Z,100434.22
2022-10-22T20:33:29.590Z,100433.78
2022-10-22T20:36:33.298Z,100422.50
2022-10-22T20:39:40.000Z,100441.31
2022-10-22T20:42:43.527Z,100436.87
2022-10-22T20:45:46.315Z,100432.03
2022-10-22T20:48:55.178Z,100431.72
2022-10-22T20:51:57.679Z,100436.50
2022-10-22T20:55:00.762Z,100438.91
2022-10-22T20:58:03.291Z,100440.56
2022-10-22T21:01:10.674Z,100448.56
2022-10-22T21:04:14.212Z,100459.47
2022-10-22T21:07:17.003Z,100464.16
2022-10-22T21:10:19.626Z,100458.50
2022-10-22T21:13:22.892Z,100457.69
2022-10-22T21:16:26.008Z,100462.38
2022-10-22T21:19:29.151Z,100463.63
2022-10-22T21:22:32.622Z,100456.25
2022-10-22T21:25:39.479Z,100456.56
2022-10-22T21:28:45.053Z,100464.63
2022-10-22T21:31:48.511Z,100464.19
2022-10-22T21:34:51.273Z,100464.28
2022-10-22T21:37:54.369Z,100474.09
2022-10-22T21:40:57.517Z,100474.84
2022-10-22T21:44:00.648Z,100468.25
2022-10-22T21:47:03.291Z,100475.28
2022-10-22T21:50:06.492Z,100472.34
2022-10-22T21:53:10.681Z,100469.56
2022-10-22T21:56:19.299Z,100459.34
2022-10-22T21:59:21.775Z,100460.31
2022-10-22T22:06:12.434Z,100469.12
2022-10-22T22:09:15.269Z,100467.25
2022-10-22T22:12:18.663Z,100462.69
2022-10-22T22:15:21.653Z,100463.56
2022-10-22T22:18:24.375Z,100454.19
2022-10-22T22:21:27.648Z,100453.75
2022-10-22T22:24:30.271Z,100456.22
2022-10-22T22:27:33.491Z,100466.34
2022-10-22T22:30:36.444Z,100474.47
2022-10-22T22:33:39.212Z,100476.34
2022-10-22T22:36:45.552Z,100479.62
2022-10-22T22:39:48.448Z,100493.03
2022-10-22T22:42:50.931Z,100489.66
2022-10-22T22:46:04.911Z,100491.31
2022-10-22T22:49:07.891Z,100493.88
2022-10-22T22:52:11.201Z,100500.41
2022-10-22T22:55:13.694Z,100496.09
2022-10-22T22:58:16.549Z,100505.91
2022-10-22T23:01:30.425Z,100501.69
2022-10-22T23:04:33.512Z,100510.53
2022-10-22T23:07:36.017Z,100512.97
2022-10-22T23:10:38.863Z,100515.78
2022-10-22T23:13:43.065Z,100516.03
2022-10-22T23:16:48.864Z,100513.28
2022-10-22T23:19:51.453Z,100523.19
2022-10-22T23:22:54.194Z,100521.00
2022-10-22T23:29:13.148Z,100520.66
2022-10-22T23:32:15.594Z,100511.06
2022-10-22T23:35:18.554Z,100509.28
2022-10-22T23:38:20.973Z,100509.59
2022-10-22T23:41:24.024Z,100503.78
2022-10-22T23:44:26.694Z,100511.78
2022-10-22T23:47:29.438Z,100512.66
2022-10-22T23:50:32.153Z,100531.72
2022-10-22T23:53:34.990Z,100519.16
2022-10-22T23:56:37.668Z,100513.81
2022-10-22T23:59:40.601Z,100520.44
